地図

経路データ

SID SEASON NUMBER BASIN SUBBASIN NAME ISO_TIME NATURE LAT LON WMO_WIND WMO_PRES WMO_AGENCY TRACK_TYPE DIST2LAND LANDFALL IFLAG USA_AGENCY USA_ATCF_ID USA_LAT USA_LON USA_RECORD USA_STATUS USA_WIND USA_PRES USA_SSHS USA_R34_NE USA_R34_SE USA_R34_SW USA_R34_NW USA_R50_NE USA_R50_SE USA_R50_SW USA_R50_NW USA_R64_NE USA_R64_SE USA_R64_SW USA_R64_NW USA_POCI USA_ROCI USA_RMW USA_EYE TOKYO_LAT TOKYO_LON TOKYO_GRADE TOKYO_WIND TOKYO_PRES TOKYO_R50_DIR TOKYO_R50_LONG TOKYO_R50_SHORT TOKYO_R30_DIR TOKYO_R30_LONG TOKYO_R30_SHORT TOKYO_LAND CMA_LAT CMA_LON CMA_CAT CMA_WIND CMA_PRES HKO_LAT HKO_LON HKO_CAT HKO_WIND HKO_PRES NEWDELHI_LAT NEWDELHI_LON NEWDELHI_GRADE NEWDELHI_WIND NEWDELHI_PRES NEWDELHI_CI NEWDELHI_DP NEWDELHI_POCI REUNION_LAT REUNION_LON REUNION_TYPE REUNION_WIND REUNION_PRES REUNION_TNUM REUNION_CI REUNION_RMW REUNION_R34_NE REUNION_R34_SE REUNION_R34_SW REUNION_R34_NW REUNION_R50_NE REUNION_R50_SE REUNION_R50_SW REUNION_R50_NW REUNION_R64_NE REUNION_R64_SE REUNION_R64_SW REUNION_R64_NW BOM_LAT BOM_LON BOM_TYPE BOM_WIND BOM_PRES BOM_TNUM BOM_CI BOM_RMW BOM_R34_NE BOM_R34_SE BOM_R34_SW BOM_R34_NW BOM_R50_NE BOM_R50_SE BOM_R50_SW BOM_R50_NW BOM_R64_NE BOM_R64_SE BOM_R64_SW BOM_R64_NW BOM_ROCI BOM_POCI BOM_EYE BOM_POS_METHOD BOM_PRES_METHOD NADI_LAT NADI_LON NADI_CAT NADI_WIND NADI_PRES WELLINGTON_LAT WELLINGTON_LON WELLINGTON_WIND WELLINGTON_PRES DS824_LAT DS824_LON DS824_STAGE DS824_WIND DS824_PRES TD9636_LAT TD9636_LON TD9636_STAGE TD9636_WIND TD9636_PRES TD9635_LAT TD9635_LON TD9635_WIND TD9635_PRES TD9635_ROCI NEUMANN_LAT NEUMANN_LON NEUMANN_CLASS NEUMANN_WIND NEUMANN_PRES MLC_LAT MLC_LON MLC_CLASS MLC_WIND MLC_PRES USA_GUST BOM_GUST BOM_GUST_PER REUNION_GUST REUNION_GUST_PER USA_SEAHGT USA_SEARAD_NE USA_SEARAD_SE USA_SEARAD_SW USA_SEARAD_NW STORM_SPEED STORM_DIR
1892299N12278 1892 57 NA CS NOT_NAMED 1892-10-25 00:00:00 TS 11.7000 -82.0000 main 174 154 _____________O -1 11.7000 -82.0000 TD 30 4 306
1892299N12278 1892 57 NA CS NOT_NAMED 1892-10-25 03:00:00 TS 11.8150 -82.1625 main 154 142 _____________P -1 11.8150 -82.1625 TD 32 4 304
1892299N12278 1892 57 NA CS NOT_NAMED 1892-10-25 06:00:00 TS 11.9000 -82.3000 main 142 132 _____________O -1 11.9000 -82.3000 TS 35 3 299
1892299N12278 1892 57 NA CS NOT_NAMED 1892-10-25 09:00:00 TS 11.9425 -82.4000 main 132 117 _____________P -1 11.9425 -82.4000 TS 40 2 297
1892299N12278 1892 57 NA CS NOT_NAMED 1892-10-25 12:00:00 TS 12.0000 -82.5000 main 117 103 _____________O -1 12.0000 -82.5000 TS 45 3 309
1892299N12278 1892 57 NA CS NOT_NAMED 1892-10-25 15:00:00 TS 12.1425 -82.6500 main 103 76 _____________P -1 12.1425 -82.6500 TS 47 4 316
1892299N12278 1892 57 NA CS NOT_NAMED 1892-10-25 18:00:00 TS 12.3000 -82.8000 main 76 65 _____________O -1 12.3000 -82.8000 TS 50 4 316
1892299N12278 1892 57 NA CS NOT_NAMED 1892-10-25 21:00:00 TS 12.4000 -82.9075 main 65 54 _____________P -1 12.4000 -82.9075 TS 50 3 316
1892299N12278 1892 57 NA CS NOT_NAMED 1892-10-26 00:00:00 TS 12.5000 -83.0000 main 54 43 _____________O -1 12.5000 -83.0000 TS 50 3 322
1892299N12278 1892 57 NA CS NOT_NAMED 1892-10-26 03:00:00 TS 12.6500 -83.1075 main 43 32 _____________P -1 12.6500 -83.1075 TS 50 4 327
1892299N12278 1892 57 NA CS NOT_NAMED 1892-10-26 06:00:00 TS 12.8000 -83.2000 main 32 21 _____________O -1 12.8000 -83.2000 TS 50 3 329
1892299N12278 1892 57 NA CS NOT_NAMED 1892-10-26 09:00:00 TS 12.9000 -83.2575 main 21 21 _____________P -1 12.9000 -83.2575 TS 50 2 333
1892299N12278 1892 57 NA CS NOT_NAMED 1892-10-26 12:00:00 TS 13.0000 -83.3000 main 21 21 _____________O -1 13.0000 -83.3000 TS 50 3 340
1892299N12278 1892 57 NA CS NOT_NAMED 1892-10-26 15:00:00 TS 13.1500 -83.3500 main 21 10 _____________P -1 13.1500 -83.3500 TS 50 3 343
1892299N12278 1892 57 NA CS NOT_NAMED 1892-10-26 18:00:00 TS 13.3000 -83.4000 main 10 0 _____________O -1 13.3000 -83.4000 TS 50 3 336
1892299N12278 1892 57 NA CS NOT_NAMED 1892-10-26 21:00:00 TS 13.3925 -83.4575 main 0 0 _____________P -1 13.3925 -83.4575 TS 50 2 333
1892299N12278 1892 57 NA CS NOT_NAMED 1892-10-27 00:00:00 TS 13.5000 -83.5000 main 0 0 _____________O -1 13.5000 -83.5000 TS 50 3 351
1892299N12278 1892 57 NA CS NOT_NAMED 1892-10-27 03:00:00 TS 13.6925 -83.5075 main 0 0 _____________P -1 13.6925 -83.5075 TS 50 4 0
1892299N12278 1892 57 NA CS NOT_NAMED 1892-10-27 06:00:00 TS 13.9000 -83.5000 main 0 0 _____________O -1 13.9000 -83.5000 TS 50 3 2
1892299N12278 1892 57 NA NA NOT_NAMED 1892-10-27 09:00:00 TS 14.0350 -83.5000 main 0 0 _____________P -1 14.0350 -83.5000 TS 47 3 0
1892299N12278 1892 57 NA NA NOT_NAMED 1892-10-27 12:00:00 TS 14.2000 -83.5000 main 0 0 _____________O -1 14.2000 -83.5000 TS 45 4 0
1892299N12278 1892 57 NA NA NOT_NAMED 1892-10-27 15:00:00 TS 14.4775 -83.5000 main 0 0 _____________P -1 14.4775 -83.5000 TS 42 6 1
1892299N12278 1892 57 NA NA NOT_NAMED 1892-10-27 18:00:00 TS 14.8000 -83.5000 main 0 0 _____________O -1 14.8000 -83.5000 TS 40 6 358
1892299N12278 1892 57 NA NA NOT_NAMED 1892-10-27 21:00:00 TS 15.1000 -83.5149 main 0 0 _____________P -1 15.1000 -83.5149 TS 37 6 1
1892299N12278 1892 57 NA CS NOT_NAMED 1892-10-28 00:00:00 TS 15.4000 -83.5000 main 11 11 _____________O -1 15.4000 -83.5000 TS 35 6 8
1892299N12278 1892 57 NA CS NOT_NAMED 1892-10-28 03:00:00 TS 15.7000 -83.4300 main 44 44 _____________P -1 15.7000 -83.4300 TS 35 6 18
1892299N12278 1892 57 NA CS NOT_NAMED 1892-10-28 06:00:00 TS 16.0000 -83.3000 main 79 79 _____________O -1 16.0000 -83.3000 TS 35 7 27
1892299N12278 1892 57 NA CS NOT_NAMED 1892-10-28 09:00:00 TS 16.3000 -83.1150 main 116 116 _____________P -1 16.3000 -83.1150 TS 37 7 33
1892299N12278 1892 57 NA CS NOT_NAMED 1892-10-28 12:00:00 TS 16.6000 -82.9000 main 155 155 _____________O -1 16.6000 -82.9000 TS 40 7 34
1892299N12278 1892 57 NA CS NOT_NAMED 1892-10-28 15:00:00 TS 16.9000 -82.6925 main 194 194 _____________P -1 16.9000 -82.6925 TS 40 7 33
1892299N12278 1892 57 NA CS NOT_NAMED 1892-10-28 18:00:00 TS 17.2000 -82.5000 main 233 233 _____________O -1 17.2000 -82.5000 TS 40 7 28
1892299N12278 1892 57 NA CS NOT_NAMED 1892-10-28 21:00:00 TS 17.4999 -82.3648 main 268 268 _____________P -1 17.4999 -82.3648 TS 37 7 25
1892299N12278 1892 57 NA CS NOT_NAMED 1892-10-29 00:00:00 TS 17.8000 -82.2000 main 307 307 _____________O -1 17.8000 -82.2000 TS 35 7 35
1892299N12278 1892 57 NA CS NOT_NAMED 1892-10-29 03:00:00 TS 18.1000 -81.9225 main 351 338 _____________P -1 18.1000 -81.9225 TS 32 8 44
1892299N12278 1892 57 NA CS NOT_NAMED 1892-10-29 06:00:00 TS 18.4000 -81.6000 main 338 310 _____________O -1 18.4000 -81.6000 TD 30 9 45
1892299N12278 1892 57 NA CS NOT_NAMED 1892-10-29 09:00:00 TS 18.7000 -81.2927 main 310 288 _____________P -1 18.7000 -81.2927 TD 27 8 43
1892299N12278 1892 57 NA CS NOT_NAMED 1892-10-29 12:00:00 TS 19.0000 -81.0000 main 288 _____________O -1 19.0000 -81.0000 TD 25 8 43

IBTrACS Databaseについて

本データベースは、米国NOAAが公開する1842年以降の世界の熱帯低気圧のベストトラックデータアーカイブInternational Best Track Archive for Climate Stewardship (IBTrACS)を、ウェブで閲覧しやすい形式に変換したものです。

最終更新日:2021-10-21